NCAR-RAP Real-Time Weather Data

Output produced by METARs form (12 August 2020  18:40 UTC)
found at http://weather.rap.ucar.edu/surface/
 
KAGS 121753Z VRB03KT 10SM CLR 35/23 A2996 RMK AO2 LTG DSNT ALQDS SLP142 T03500228 10350 20244 58012
KAGS 121653Z 00000KT 10SM CLR 34/23 A2998 RMK AO2 SLP151 T03440228
KAGS 121553Z 00000KT 10SM CLR 33/22 A2999 RMK AO2 SLP154 T03330217
KAGS 121453Z 00000KT 10SM CLR 31/23 A2999 RMK AO2 SLP154 T03110228 58000
KAGS 121353Z 00000KT 10SM CLR 29/23 A2999 RMK AO2 SLP155 T02890233
KAGS 121253Z 27003KT 10SM CLR 27/23 A3000 RMK AO2 SLP155 T02670233
KAGS 121153Z 00000KT 10SM CLR 24/23 A2999 RMK AO2 SLP154 T02440228 10256 20233 52014
KAGS 121053Z AUTO 00000KT 9SM CLR 24/22 A2998 RMK AO2 SLP150 T02390222 TSNO
KAGS 120953Z AUTO 19003KT 9SM CLR 23/22 A2996 RMK AO2 SLP145 T02330222 TSNO
KAGS 120853Z AUTO 00000KT 10SM CLR 24/23 A2995 RMK AO2 SLP140 T02440228 55003
KAGS 120753Z AUTO 23003KT 8SM CLR 24/23 A2995 RMK AO2 SLP138 T02390228
KAGS 120653Z AUTO 00000KT 10SM CLR 24/23 A2995 RMK AO2 SLP141 T02440228
KAGS 120553Z AUTO 00000KT 10SM CLR 25/23 A2996 RMK AO2 SLP144 T02500228 10294 20250 58005
KAGS 120453Z AUTO 20004KT 10SM CLR 26/23 A2997 RMK AO2 SLP147 T02610228 403560217
KAGS 120353Z AUTO 24006KT 10SM CLR 27/23 A2998 RMK AO2 SLP149 T02720228
KAGS 120253Z AUTO 00000KT 10SM CLR 26/24 A2998 RMK AO2 SLP149 T02610239 53022
KAGS 120153Z AUTO 16003KT 10SM CLR 26/24 A2996 RMK AO2 SLP143 T02610239
KAGS 120053Z AUTO 18003KT 10SM BKN055 BKN090 27/23 A2993 RMK AO2 SLP133 T02720233
KAGS 112353Z AUTO 23003KT 10SM CLR 29/23 A2991 RMK AO2 LTG DSNT S SLP127 T02940233 10356 20294 55000
KAGS 112253Z AUTO 07008G16KT 10SM CLR 32/22 A2992 RMK AO2 LTG DSNT SE SLP129 T03170222
KAGS 112245Z AUTO 08007KT 10SM CLR 33/23 A2991 RMK AO2 LTG DSNT SE AND SW T03280233
KAGS 112229Z AUTO 10005KT 10SM VCTS CLR 33/24 A2990 RMK AO2 LTG DSNT E-S T03280239
KAGS 112153Z AUTO 03004KT 10SM CLR 35/21 A2990 RMK AO2 LTG DSNT SE SLP123 T03500206
KAGS 112053Z AUTO 15005KT 10SM CLR 34/23 A2991 RMK AO2 LTG DSNT NE AND SE SLP127 T03390233 56021